createdAt,value
2018-12-16T00:00:09.408Z,35.37
2018-12-16T00:02:12.348Z,38.80
2018-12-16T00:04:15.438Z,37.40
2018-12-16T00:06:20.578Z,37.03
2018-12-16T00:08:23.236Z,38.80
2018-12-16T00:10:25.933Z,33.85
2018-12-16T00:12:28.792Z,38.07
2018-12-16T00:14:31.543Z,38.37
2018-12-16T00:16:34.319Z,34.57
2018-12-16T00:18:36.961Z,37.83
2018-12-16T00:20:39.682Z,40.53
2018-12-16T00:22:42.375Z,38.70
2018-12-16T00:24:45.643Z,37.70
2018-12-16T00:27:00.168Z,31.70
2018-12-16T00:29:02.839Z,39.47
2018-12-16T00:31:06.043Z,37.70
2018-12-16T00:33:08.777Z,31.80
2018-12-16T00:35:11.642Z,36.20
2018-12-16T00:37:14.606Z,37.63
2018-12-16T00:39:17.954Z,34.33
2018-12-16T00:41:20.551Z,34.73
2018-12-16T00:43:26.844Z,37.60
2018-12-16T00:45:29.916Z,38.50
2018-12-16T00:47:33.284Z,37.40
2018-12-16T00:49:35.917Z,38.73
2018-12-16T00:51:38.515Z,39.40
2018-12-16T00:53:41.176Z,39.30
2018-12-16T00:55:43.975Z,32.20
2018-12-16T00:57:46.730Z,39.00
2018-12-16T00:59:51.863Z,31.33
2018-12-16T01:01:54.990Z,37.80
2018-12-16T01:03:57.685Z,38.53
2018-12-16T01:06:00.275Z,35.33
2018-12-16T01:08:02.874Z,36.30
2018-12-16T01:10:08.113Z,32.33
2018-12-16T01:12:11.082Z,40.33
2018-12-16T01:14:15.218Z,35.73
2018-12-16T01:16:17.907Z,38.77
2018-12-16T01:18:20.742Z,37.60
2018-12-16T01:20:24.264Z,37.67
2018-12-16T01:22:26.862Z,38.23
2018-12-16T01:24:30.787Z,33.63
2018-12-16T01:26:33.443Z,37.23
2018-12-16T01:28:36.980Z,33.87
2018-12-16T01:30:39.617Z,34.23
2018-12-16T01:32:42.401Z,38.90
2018-12-16T01:34:45.048Z,38.50
2018-12-16T01:36:47.698Z,38.40
2018-12-16T01:38:50.384Z,33.13
2018-12-16T01:40:53.918Z,35.40
2018-12-16T01:42:57.440Z,34.60
2018-12-16T01:45:00.123Z,34.47
2018-12-16T01:47:03.672Z,38.87
2018-12-16T01:49:06.487Z,40.73
2018-12-16T01:51:11.643Z,36.83
2018-12-16T01:53:14.433Z,35.40
2018-12-16T01:55:18.066Z,37.80
2018-12-16T01:57:21.129Z,42.20
2018-12-16T01:59:25.676Z,39.03
2018-12-16T02:01:28.740Z,42.73
2018-12-16T02:03:31.871Z,39.37
2018-12-16T02:05:34.605Z,38.80
2018-12-16T02:07:37.384Z,40.20
2018-12-16T02:09:40.287Z,44.50
2018-12-16T02:11:44.072Z,50.60
2018-12-16T02:13:46.852Z,45.70
2018-12-16T02:15:49.649Z,41.53
2018-12-16T02:17:54.762Z,49.33
2018-12-16T02:19:58.301Z,39.73
2018-12-16T02:22:02.386Z,49.03
2018-12-16T02:24:05.026Z,44.23
2018-12-16T02:26:08.574Z,49.20
2018-12-16T02:28:12.112Z,41.47
2018-12-16T02:30:16.775Z,51.00
2018-12-16T02:32:21.051Z,40.55
2018-12-16T02:34:23.705Z,46.57
2018-12-16T02:36:26.582Z,44.50
2018-12-16T02:38:29.206Z,44.20
2018-12-16T02:40:32.899Z,44.10
2018-12-16T02:42:35.594Z,44.83
2018-12-16T02:44:38.232Z,48.33
2018-12-16T02:46:41.784Z,45.33
2018-12-16T02:48:44.582Z,40.90
2018-12-16T02:50:47.450Z,39.63
2018-12-16T02:52:50.293Z,49.63
2018-12-16T02:54:53.021Z,41.45
2018-12-16T02:56:56.357Z,42.60
2018-12-16T02:58:59.155Z,41.60
2018-12-16T03:01:02.059Z,46.37
2018-12-16T03:03:05.732Z,38.30
2018-12-16T03:05:09.215Z,47.10
2018-12-16T03:07:11.878Z,41.00
2018-12-16T03:09:14.485Z,44.77
2018-12-16T03:11:17.123Z,42.87
2018-12-16T03:13:19.763Z,36.77
2018-12-16T03:15:22.386Z,43.40
2018-12-16T03:17:25.041Z,40.60
2018-12-16T03:19:27.638Z,37.63
2018-12-16T03:21:30.281Z,35.97
2018-12-16T03:23:32.863Z,44.00
2018-12-16T03:25:35.484Z,40.60
2018-12-16T03:27:38.087Z,47.37
2018-12-16T03:29:40.705Z,42.07
2018-12-16T03:31:44.629Z,41.75
2018-12-16T03:33:47.238Z,45.10
2018-12-16T03:35:49.845Z,45.50
2018-12-16T03:37:52.477Z,44.95
2018-12-16T03:39:55.280Z,43.00
2018-12-16T03:41:57.893Z,45.13
2018-12-16T03:44:00.487Z,43.03
2018-12-16T03:46:03.137Z,46.13
2018-12-16T03:48:05.775Z,46.75
2018-12-16T03:50:08.473Z,46.40
2018-12-16T03:52:11.116Z,45.80
2018-12-16T03:54:13.702Z,47.13
2018-12-16T03:56:16.320Z,48.40
2018-12-16T03:58:18.969Z,41.70
2018-12-16T04:00:21.680Z,42.43
2018-12-16T04:02:24.350Z,47.33
2018-12-16T04:04:27.044Z,42.03
2018-12-16T04:06:29.608Z,45.07
2018-12-16T04:08:32.235Z,42.60
2018-12-16T04:10:34.854Z,44.93
2018-12-16T04:12:37.502Z,46.60
2018-12-16T04:14:41.341Z,47.00
2018-12-16T04:16:44.258Z,47.63
2018-12-16T04:18:46.862Z,45.20
2018-12-16T04:20:49.459Z,43.93
2018-12-16T04:22:52.083Z,44.97
2018-12-16T04:24:54.733Z,44.80
2018-12-16T04:26:57.352Z,46.40
2018-12-16T04:28:59.970Z,43.43
2018-12-16T04:31:02.565Z,41.53
2018-12-16T04:33:05.195Z,43.70
2018-12-16T04:35:07.792Z,45.45
2018-12-16T04:37:10.598Z,50.33
2018-12-16T04:39:13.302Z,43.35
2018-12-16T04:41:15.934Z,45.63
2018-12-16T04:43:18.603Z,43.87
2018-12-16T04:45:21.220Z,49.18
2018-12-16T04:47:23.884Z,52.33
2018-12-16T04:49:26.562Z,45.40
2018-12-16T04:51:29.169Z,45.80
2018-12-16T04:53:35.904Z,48.13
2018-12-16T04:55:36.479Z,44.87
2018-12-16T04:57:39.116Z,50.67
2018-12-16T04:59:41.709Z,45.78
2018-12-16T05:01:45.126Z,44.80
2018-12-16T05:03:47.774Z,39.10
2018-12-16T05:05:50.364Z,45.97
2018-12-16T05:07:53.098Z,43.57
2018-12-16T05:10:00.249Z,46.53
2018-12-16T05:12:02.866Z,42.63
2018-12-16T05:14:05.479Z,40.40
2018-12-16T05:16:08.078Z,43.50
2018-12-16T05:18:10.708Z,44.57
2018-12-16T05:20:13.326Z,46.43
2018-12-16T05:22:15.915Z,44.67
2018-12-16T05:24:18.589Z,41.47
2018-12-16T05:26:21.207Z,45.13
2018-12-16T05:28:23.852Z,53.23
2018-12-16T05:30:26.442Z,57.50
2018-12-16T05:32:29.056Z,44.23
2018-12-16T05:34:31.686Z,49.00
2018-12-16T05:36:34.281Z,46.83
2018-12-16T05:38:36.911Z,49.73
2018-12-16T05:40:39.514Z,41.23
2018-12-16T05:42:42.134Z,42.67
2018-12-16T05:44:44.744Z,46.10
2018-12-16T05:46:47.354Z,50.60
2018-12-16T05:48:50.003Z,49.63
2018-12-16T05:50:52.612Z,51.17
2018-12-16T05:52:56.730Z,52.57
2018-12-16T05:54:59.490Z,61.83
2018-12-16T05:57:02.095Z,48.33
2018-12-16T05:59:04.737Z,55.67
2018-12-16T06:01:07.337Z,50.47
2018-12-16T06:03:09.957Z,45.40
2018-12-16T06:05:12.570Z,47.17
2018-12-16T06:07:15.193Z,45.03
2018-12-16T06:09:18.227Z,43.93
2018-12-16T06:11:20.909Z,42.63
2018-12-16T06:13:23.507Z,48.17
2018-12-16T06:15:26.121Z,49.53
2018-12-16T06:17:28.718Z,42.73
2018-12-16T06:19:31.353Z,39.40
2018-12-16T06:21:34.478Z,45.00
2018-12-16T06:23:37.117Z,39.20
2018-12-16T06:25:39.746Z,48.80
2018-12-16T06:27:43.377Z,45.00
2018-12-16T06:29:46.419Z,43.30
2018-12-16T06:31:49.031Z,47.20
2018-12-16T06:33:51.755Z,44.20
2018-12-16T06:35:54.338Z,47.03
2018-12-16T06:37:56.958Z,47.50
2018-12-16T06:39:59.662Z,48.27
2018-12-16T06:42:02.265Z,38.17
2018-12-16T06:44:05.791Z,47.87
2018-12-16T06:46:08.358Z,40.53
2018-12-16T06:48:10.951Z,43.83
2018-12-16T06:50:13.569Z,44.40
2018-12-16T06:52:16.176Z,45.90
2018-12-16T06:54:18.845Z,42.50
2018-12-16T06:56:21.465Z,47.50
2018-12-16T06:58:24.087Z,48.73
2018-12-16T07:00:27.115Z,47.90
2018-12-16T07:02:29.727Z,51.43
2018-12-16T07:04:32.360Z,44.53
2018-12-16T07:06:34.963Z,52.70
2018-12-16T07:08:37.624Z,50.70
2018-12-16T07:10:40.264Z,44.80
2018-12-16T07:12:44.166Z,45.37
2018-12-16T07:14:46.937Z,47.50
2018-12-16T07:16:49.521Z,41.10
2018-12-16T07:18:52.157Z,44.03
2018-12-16T07:20:54.802Z,45.37
2018-12-16T07:22:57.466Z,51.20
2018-12-16T07:25:00.153Z,59.73
2018-12-16T07:27:02.761Z,71.13
2018-12-16T07:29:06.823Z,64.87
2018-12-16T07:31:09.479Z,51.07
2018-12-16T07:33:12.124Z,49.50
2018-12-16T07:35:14.771Z,50.23
2018-12-16T07:37:19.185Z,44.80
2018-12-16T07:39:22.218Z,44.30
2018-12-16T07:41:24.841Z,47.33
2018-12-16T07:43:27.535Z,44.93
2018-12-16T07:45:30.380Z,47.13
2018-12-16T07:47:32.981Z,44.30
2018-12-16T07:49:35.635Z,50.43
2018-12-16T07:51:38.276Z,43.90
2018-12-16T07:53:40.890Z,43.90
2018-12-16T07:55:43.999Z,42.87
2018-12-16T07:57:46.662Z,48.70
2018-12-16T07:59:49.425Z,56.63
2018-12-16T08:01:52.040Z,62.13
2018-12-16T08:03:54.796Z,63.00
2018-12-16T08:05:57.449Z,65.27
2018-12-16T08:08:00.085Z,48.97
2018-12-16T08:10:02.793Z,54.90
2018-12-16T08:12:05.407Z,50.13
2018-12-16T08:14:07.996Z,55.80
2018-12-16T08:16:11.646Z,49.93
2018-12-16T08:18:14.223Z,52.53
2018-12-16T08:20:16.873Z,51.03
2018-12-16T08:22:19.487Z,55.10
2018-12-16T08:24:23.325Z,47.07
2018-12-16T08:26:26.248Z,55.93
2018-12-16T08:28:28.836Z,56.37
2018-12-16T08:30:31.473Z,53.97
2018-12-16T08:32:34.042Z,53.37
2018-12-16T08:34:36.702Z,52.80
2018-12-16T08:36:39.306Z,52.70
2018-12-16T08:38:41.896Z,50.47
2018-12-16T08:40:44.509Z,55.60
2018-12-16T08:42:47.350Z,64.33
2018-12-16T08:44:50.001Z,52.23
2018-12-16T08:46:52.645Z,55.20
2018-12-16T08:48:55.270Z,47.40
2018-12-16T08:50:57.967Z,46.93
2018-12-16T08:53:00.581Z,56.53
2018-12-16T08:55:03.645Z,52.50
2018-12-16T08:57:06.263Z,59.77
2018-12-16T08:59:09.159Z,53.80
2018-12-16T09:01:12.333Z,52.60
2018-12-16T09:03:15.007Z,60.07
2018-12-16T09:05:17.637Z,52.63
2018-12-16T09:07:20.362Z,53.73
2018-12-16T09:09:23.226Z,59.20
2018-12-16T09:11:26.822Z,57.60
2018-12-16T09:13:29.985Z,57.17
2018-12-16T09:15:32.608Z,63.37
2018-12-16T09:17:35.210Z,60.00
2018-12-16T09:19:37.787Z,64.20
2018-12-16T09:21:40.492Z,66.73
2018-12-16T09:23:44.063Z,58.50
2018-12-16T09:25:46.727Z,61.17
2018-12-16T09:27:49.297Z,67.20
2018-12-16T09:29:51.905Z,58.23
2018-12-16T09:31:54.552Z,66.07
2018-12-16T09:33:57.135Z,58.80
2018-12-16T09:35:59.815Z,70.50
2018-12-16T09:38:03.010Z,60.57
2018-12-16T09:40:06.642Z,61.07
2018-12-16T09:42:09.238Z,68.33
2018-12-16T09:44:11.896Z,71.27
2018-12-16T09:46:14.542Z,69.60
2018-12-16T09:48:17.168Z,64.60
2018-12-16T09:50:19.823Z,56.27
2018-12-16T09:52:23.646Z,64.57
2018-12-16T09:54:26.583Z,65.93
2018-12-16T09:56:29.242Z,61.47
2018-12-16T09:58:31.826Z,66.03
2018-12-16T10:00:34.426Z,67.93
2018-12-16T10:02:37.050Z,69.03
2018-12-16T10:04:39.640Z,82.60
2018-12-16T10:06:42.286Z,75.20
2018-12-16T10:08:44.987Z,81.83
2018-12-16T10:10:47.644Z,63.70
2018-12-16T10:12:50.219Z,79.53
2018-12-16T10:14:52.818Z,77.67
2018-12-16T10:16:56.506Z,88.17
2018-12-16T10:18:59.225Z,70.47
2018-12-16T10:21:01.835Z,70.53
2018-12-16T10:23:04.597Z,78.23
2018-12-16T10:25:07.366Z,85.70
2018-12-16T10:27:10.107Z,74.97
2018-12-16T10:29:12.682Z,77.10
2018-12-16T10:31:15.300Z,77.73
2018-12-16T10:33:18.896Z,72.93
2018-12-16T10:35:22.203Z,77.57
2018-12-16T10:37:24.835Z,72.93
2018-12-16T10:39:27.641Z,68.13
2018-12-16T10:41:30.347Z,70.60
2018-12-16T10:43:32.972Z,70.23
2018-12-16T10:45:35.618Z,75.30
2018-12-16T10:47:38.212Z,69.13
2018-12-16T10:49:40.840Z,69.40
2018-12-16T10:51:43.471Z,69.73
2018-12-16T10:53:46.054Z,75.33
2018-12-16T10:55:48.675Z,64.90
2018-12-16T10:57:52.917Z,91.73
2018-12-16T10:59:55.485Z,72.30
2018-12-16T11:01:58.138Z,82.73
2018-12-16T11:04:01.595Z,62.97
2018-12-16T11:06:04.277Z,71.20
2018-12-16T11:08:06.914Z,71.07
2018-12-16T11:10:10.823Z,63.30
2018-12-16T11:12:13.432Z,74.10
2018-12-16T11:14:16.036Z,61.50
2018-12-16T11:16:18.649Z,61.33
2018-12-16T11:18:21.235Z,90.47
2018-12-16T11:20:24.145Z,85.43
2018-12-16T11:22:26.757Z,79.63
2018-12-16T11:24:29.381Z,83.30
2018-12-16T11:26:31.971Z,88.43
2018-12-16T11:28:34.546Z,87.77
2018-12-16T11:30:37.143Z,81.70
2018-12-16T11:32:39.760Z,74.20
2018-12-16T11:34:42.373Z,70.30
2018-12-16T11:36:45.030Z,75.97
2018-12-16T11:38:47.666Z,75.90
2018-12-16T11:40:50.282Z,70.77
2018-12-16T11:42:53.004Z,75.40
2018-12-16T11:44:55.623Z,81.70
2018-12-16T11:46:58.284Z,60.77
2018-12-16T11:49:00.924Z,64.20
2018-12-16T11:51:03.505Z,68.57
2018-12-16T11:53:06.146Z,56.93
2018-12-16T11:55:12.815Z,61.40
2018-12-16T11:57:13.404Z,52.83
2018-12-16T11:59:15.980Z,55.87
2018-12-16T12:01:18.649Z,57.17
2018-12-16T12:03:21.225Z,50.37
2018-12-16T12:05:23.841Z,51.33
2018-12-16T12:07:26.491Z,56.73
2018-12-16T12:09:29.063Z,48.87
2018-12-16T12:11:31.665Z,53.10
2018-12-16T12:13:34.261Z,55.83
2018-12-16T12:15:36.844Z,56.43
2018-12-16T12:17:39.457Z,53.07
2018-12-16T12:19:42.094Z,54.00
2018-12-16T12:21:44.706Z,52.70
2018-12-16T12:23:47.313Z,55.53
2018-12-16T12:25:49.900Z,61.13
2018-12-16T12:27:53.325Z,56.63
2018-12-16T12:29:56.025Z,52.27
2018-12-16T12:31:59.036Z,60.93
2018-12-16T12:34:02.489Z,67.27
2018-12-16T12:36:05.138Z,59.47
2018-12-16T12:38:08.661Z,64.30
2018-12-16T12:40:15.144Z,65.27
2018-12-16T12:42:20.520Z,61.23
2018-12-16T12:44:27.514Z,59.13
2018-12-16T12:46:36.072Z,68.23
2018-12-16T12:48:44.035Z,54.00
2018-12-16T12:50:50.916Z,57.17
2018-12-16T12:53:00.044Z,73.03
2018-12-16T12:55:03.239Z,63.63
2018-12-16T12:57:05.961Z,72.30
2018-12-16T12:59:08.674Z,61.37
2018-12-16T13:01:11.290Z,63.53
2018-12-16T13:03:13.959Z,66.47
2018-12-16T13:05:16.583Z,56.80
2018-12-16T13:07:19.547Z,67.97
2018-12-16T13:09:22.153Z,57.07
2018-12-16T13:11:24.880Z,64.97
2018-12-16T13:13:27.525Z,62.20
2018-12-16T13:15:30.172Z,54.00
2018-12-16T13:17:33.222Z,56.70
2018-12-16T13:19:36.739Z,58.53
2018-12-16T13:21:39.608Z,64.80
2018-12-16T13:23:42.256Z,47.43
2018-12-16T13:25:56.760Z,61.90
2018-12-16T13:27:59.398Z,53.23
2018-12-16T13:30:02.486Z,49.90
2018-12-16T13:32:05.172Z,52.33
2018-12-16T13:34:08.364Z,57.00
2018-12-16T13:36:11.232Z,63.63
2018-12-16T13:38:13.995Z,69.17
2018-12-16T13:40:16.675Z,66.00
2018-12-16T13:42:19.287Z,66.67
2018-12-16T13:44:22.008Z,63.30
2018-12-16T13:46:24.785Z,58.67
2018-12-16T13:48:27.418Z,62.50
2018-12-16T13:50:29.996Z,65.30
2018-12-16T13:52:32.565Z,56.70
2018-12-16T13:54:35.217Z,54.20
2018-12-16T13:56:37.857Z,60.53
2018-12-16T13:58:40.555Z,64.70
2018-12-16T14:00:43.291Z,71.80
2018-12-16T14:02:45.886Z,101.17
2018-12-16T14:04:48.577Z,70.20
2018-12-16T14:06:51.233Z,60.80
2018-12-16T14:08:53.977Z,57.23
2018-12-16T14:10:56.854Z,67.37
2018-12-16T14:12:59.944Z,53.57
2018-12-16T14:15:03.211Z,52.57
2018-12-16T14:17:05.790Z,49.60
2018-12-16T14:19:08.447Z,51.00
2018-12-16T14:21:11.276Z,52.17
2018-12-16T14:23:13.882Z,53.70
2018-12-16T14:25:16.849Z,47.10
2018-12-16T14:27:19.634Z,74.63
2018-12-16T14:29:22.304Z,75.73
2018-12-16T14:31:24.923Z,67.37
2018-12-16T14:33:27.734Z,55.03
2018-12-16T14:35:30.512Z,53.30
2018-12-16T14:37:33.759Z,46.83
2018-12-16T14:39:36.428Z,49.03
2018-12-16T14:41:39.078Z,51.80
2018-12-16T14:43:41.708Z,48.90
2018-12-16T14:45:44.451Z,45.80
2018-12-16T14:47:47.107Z,52.43
2018-12-16T14:49:49.768Z,44.87
2018-12-16T14:51:52.412Z,45.23
2018-12-16T14:53:54.992Z,49.53
2018-12-16T14:55:57.616Z,58.20
2018-12-16T14:58:00.231Z,42.60
2018-12-16T15:00:03.555Z,53.20
2018-12-16T15:02:06.171Z,48.53
2018-12-16T15:04:08.802Z,66.17
2018-12-16T15:06:11.481Z,65.60
2018-12-16T15:08:14.076Z,53.33
2018-12-16T15:10:16.686Z,65.93
2018-12-16T15:12:19.296Z,76.80
2018-12-16T15:14:21.885Z,61.90
2018-12-16T15:16:24.552Z,89.33
2018-12-16T15:18:27.182Z,83.50
2018-12-16T15:20:29.816Z,81.13
2018-12-16T15:22:33.392Z,67.73
2018-12-16T15:24:36.023Z,67.60
2018-12-16T15:26:38.800Z,88.90
2018-12-16T15:28:41.419Z,59.87
2018-12-16T15:30:44.137Z,78.03
2018-12-16T15:32:46.741Z,57.93
2018-12-16T15:34:50.059Z,63.73
2018-12-16T15:36:52.828Z,63.10
2018-12-16T15:38:55.428Z,49.07
2018-12-16T15:40:58.056Z,67.77
2018-12-16T15:43:00.714Z,53.73
2018-12-16T15:45:04.336Z,52.30
2018-12-16T15:47:06.995Z,58.53
2018-12-16T15:49:09.615Z,62.67
2018-12-16T15:51:12.253Z,80.20
2018-12-16T15:53:14.926Z,69.97
2018-12-16T15:55:17.552Z,79.50
2018-12-16T15:57:20.213Z,61.67
2018-12-16T15:59:22.919Z,71.73
2018-12-16T16:01:25.735Z,82.00
2018-12-16T16:03:28.764Z,64.33
2018-12-16T16:05:31.532Z,58.07
2018-12-16T16:07:34.180Z,66.23
2018-12-16T16:09:36.779Z,84.90
2018-12-16T16:11:39.411Z,90.00
2018-12-16T16:13:41.998Z,71.07
2018-12-16T16:15:44.599Z,61.67
2018-12-16T16:17:47.234Z,67.30
2018-12-16T16:19:50.345Z,72.53
2018-12-16T16:21:52.985Z,71.47
2018-12-16T16:23:55.600Z,82.40
2018-12-16T16:25:58.189Z,71.97
2018-12-16T16:28:00.893Z,64.07
2018-12-16T16:30:05.769Z,144.27
2018-12-16T16:32:08.424Z,92.07
2018-12-16T16:34:10.990Z,132.77
2018-12-16T16:36:13.590Z,112.17
2018-12-16T16:38:16.201Z,103.70
2018-12-16T16:40:18.957Z,111.80
2018-12-16T16:42:21.598Z,130.60
2018-12-16T16:44:24.177Z,97.30
2018-12-16T16:46:27.264Z,97.43
2018-12-16T16:48:29.961Z,101.17
2018-12-16T16:50:32.603Z,110.47
2018-12-16T16:52:35.443Z,93.73
2018-12-16T16:54:38.021Z,91.03
2018-12-16T16:56:40.647Z,86.67
2018-12-16T16:58:43.304Z,76.73
2018-12-16T17:00:45.890Z,72.40
2018-12-16T17:02:48.524Z,72.43
2018-12-16T17:04:51.127Z,65.70
2018-12-16T17:06:53.701Z,64.67
2018-12-16T17:08:57.559Z,71.83
2018-12-16T17:11:01.097Z,80.20
2018-12-16T17:13:04.668Z,79.37
2018-12-16T17:15:07.368Z,77.87
2018-12-16T17:17:09.945Z,76.67
2018-12-16T17:19:12.952Z,72.27
2018-12-16T17:21:15.549Z,65.40
2018-12-16T17:23:18.178Z,55.47
2018-12-16T17:25:21.276Z,51.63
2018-12-16T17:27:23.859Z,50.93
2018-12-16T17:29:26.524Z,48.07
2018-12-16T17:31:29.136Z,47.90
2018-12-16T17:33:31.837Z,46.17
2018-12-16T17:35:34.469Z,46.80
2018-12-16T17:37:38.448Z,53.27
2018-12-16T17:39:41.075Z,41.07
2018-12-16T17:41:43.768Z,55.23
2018-12-16T17:43:46.407Z,45.50
2018-12-16T17:45:49.682Z,43.70
2018-12-16T17:47:52.450Z,43.83
2018-12-16T17:49:55.130Z,45.47
2018-12-16T17:51:58.271Z,45.93
2018-12-16T17:54:00.891Z,44.63
2018-12-16T17:56:03.779Z,51.20
2018-12-16T17:58:06.705Z,51.53
2018-12-16T18:00:10.047Z,43.93
2018-12-16T18:02:12.670Z,46.90
2018-12-16T18:04:15.345Z,38.67
2018-12-16T18:06:18.078Z,53.47
2018-12-16T18:08:21.445Z,52.50
2018-12-16T18:10:24.064Z,52.23
2018-12-16T18:12:26.709Z,60.03
2018-12-16T18:14:29.375Z,56.67
2018-12-16T18:16:32.000Z,50.70
2018-12-16T18:18:34.962Z,48.57
2018-12-16T18:20:37.655Z,44.30
2018-12-16T18:22:40.336Z,57.07
2018-12-16T18:24:43.353Z,57.70
2018-12-16T18:26:45.955Z,65.33
2018-12-16T18:28:48.594Z,54.37
2018-12-16T18:30:51.266Z,84.53
2018-12-16T18:32:53.903Z,71.57
2018-12-16T18:34:56.586Z,64.03
2018-12-16T18:37:00.125Z,54.47
2018-12-16T18:39:02.854Z,55.17
2018-12-16T18:41:05.466Z,73.00
2018-12-16T18:43:08.071Z,84.17
2018-12-16T18:45:10.749Z,115.00
2018-12-16T18:47:14.478Z,76.50
2018-12-16T18:49:17.131Z,95.40
2018-12-16T18:51:19.735Z,79.87
2018-12-16T18:53:23.063Z,77.30
2018-12-16T18:55:25.755Z,79.83
2018-12-16T18:57:28.361Z,78.70
2018-12-16T18:59:31.599Z,82.43
2018-12-16T19:01:34.185Z,68.90
2018-12-16T19:03:36.919Z,67.53
2018-12-16T19:05:40.838Z,67.53
2018-12-16T19:07:43.566Z,73.10
2018-12-16T19:09:48.083Z,84.23
2018-12-16T19:11:53.292Z,88.40
2018-12-16T19:13:57.643Z,98.77
2018-12-16T19:16:00.509Z,112.47
2018-12-16T19:18:03.738Z,124.60
2018-12-16T19:20:07.506Z,89.83
2018-12-16T19:22:11.535Z,82.57
2018-12-16T19:24:14.780Z,82.57
2018-12-16T19:26:18.554Z,114.53
2018-12-16T19:28:21.952Z,75.87
2018-12-16T19:30:25.235Z,75.40
2018-12-16T19:32:28.272Z,61.70
2018-12-16T19:34:31.622Z,69.83
2018-12-16T19:36:35.555Z,67.47
2018-12-16T19:38:39.465Z,77.17
2018-12-16T19:40:43.265Z,86.87
2018-12-16T19:42:46.889Z,98.17
2018-12-16T19:44:49.667Z,80.80
2018-12-16T19:46:52.531Z,76.47
2018-12-16T19:48:55.396Z,73.80
2018-12-16T19:50:59.378Z,78.23
2018-12-16T19:53:03.256Z,85.33
2018-12-16T19:55:07.206Z,104.37
2018-12-16T19:57:12.604Z,102.13
2018-12-16T19:59:16.405Z,91.73
2018-12-16T20:01:20.858Z,97.30
2018-12-16T20:03:23.619Z,75.70
2018-12-16T20:05:26.442Z,80.30
2018-12-16T20:07:29.078Z,75.13
2018-12-16T20:09:31.789Z,77.30
2018-12-16T20:11:34.381Z,66.20
2018-12-16T20:13:36.979Z,153.33
2018-12-16T20:15:39.966Z,83.73
2018-12-16T20:17:42.764Z,79.47
2018-12-16T20:19:45.390Z,243.73
2018-12-16T20:21:48.033Z,77.87
2018-12-16T20:23:50.669Z,76.03
2018-12-16T20:25:53.307Z,158.00
2018-12-16T20:27:56.458Z,71.37
2018-12-16T20:29:59.223Z,71.27
2018-12-16T20:32:01.854Z,66.80
2018-12-16T20:34:04.588Z,70.13
2018-12-16T20:36:07.287Z,69.43
2018-12-16T20:38:10.370Z,65.30
2018-12-16T20:40:13.024Z,77.33
2018-12-16T20:42:16.267Z,69.93
2018-12-16T20:44:18.929Z,73.30
2018-12-16T20:46:21.593Z,65.93
2018-12-16T20:48:24.230Z,66.50
2018-12-16T20:50:27.662Z,62.17
2018-12-16T20:52:30.280Z,71.13
2018-12-16T20:54:32.866Z,66.20
2018-12-16T20:56:36.359Z,69.37
2018-12-16T20:58:38.970Z,71.53
2018-12-16T21:00:41.582Z,92.03
2018-12-16T21:02:44.231Z,81.60
2018-12-16T21:04:46.870Z,84.67
2018-12-16T21:06:49.476Z,83.30
2018-12-16T21:08:52.100Z,90.03
2018-12-16T21:10:55.469Z,82.67
2018-12-16T21:13:03.877Z,77.47
2018-12-16T21:17:49.824Z,73.20
2018-12-16T21:19:52.453Z,63.33
2018-12-16T21:21:55.034Z,66.77
2018-12-16T21:23:57.727Z,65.27
2018-12-16T21:26:00.869Z,59.67
2018-12-16T21:28:03.517Z,61.93
2018-12-16T21:30:08.888Z,67.43
2018-12-16T21:32:13.566Z,68.67
2018-12-16T21:34:16.216Z,61.57
2018-12-16T21:36:19.686Z,66.10
2018-12-16T21:38:22.288Z,72.50
2018-12-16T21:40:25.097Z,69.80
2018-12-16T21:42:29.217Z,76.97
2018-12-16T21:44:31.846Z,66.43
2018-12-16T21:46:34.524Z,79.30
2018-12-16T21:48:37.742Z,75.27
2018-12-16T21:50:40.394Z,79.23
2018-12-16T21:52:42.968Z,94.10
2018-12-16T21:54:45.592Z,88.90
2018-12-16T21:56:48.876Z,115.90
2018-12-16T21:58:51.832Z,99.57
2018-12-16T22:00:54.631Z,118.80
2018-12-16T22:02:57.280Z,114.20
2018-12-16T22:04:59.929Z,117.27
2018-12-16T22:07:02.590Z,105.83
2018-12-16T22:09:07.661Z,86.73
2018-12-16T22:11:10.302Z,91.73
2018-12-16T22:13:12.883Z,93.90
2018-12-16T22:15:16.245Z,98.57
2018-12-16T22:17:19.462Z,96.70
2018-12-16T22:19:22.306Z,79.30
2018-12-16T22:21:24.948Z,88.00
2018-12-16T22:23:27.558Z,84.33
2018-12-16T22:25:30.176Z,69.43
2018-12-16T22:27:32.779Z,73.27
2018-12-16T22:29:35.631Z,58.50
2018-12-16T22:31:38.312Z,80.83
2018-12-16T22:33:40.897Z,66.70
2018-12-16T22:35:43.486Z,74.83
2018-12-16T22:37:46.156Z,91.60
2018-12-16T22:39:48.747Z,106.70
2018-12-16T22:41:51.863Z,93.50
2018-12-16T22:43:54.586Z,78.87
2018-12-16T22:45:57.189Z,78.50
2018-12-16T22:47:59.869Z,89.73
2018-12-16T22:50:02.597Z,87.10
2018-12-16T22:52:06.371Z,75.17
2018-12-16T22:54:08.995Z,81.47
2018-12-16T22:56:12.033Z,72.47
2018-12-16T22:58:14.676Z,71.90
2018-12-16T23:00:17.569Z,65.17
2018-12-16T23:02:20.221Z,61.10
2018-12-16T23:04:22.857Z,79.43
2018-12-16T23:06:25.449Z,70.43
2018-12-16T23:08:28.084Z,58.13
2018-12-16T23:10:30.721Z,58.33
2018-12-16T23:12:33.683Z,66.93
2018-12-16T23:14:36.535Z,69.50
2018-12-16T23:16:39.236Z,75.77
2018-12-16T23:18:41.885Z,74.93
2018-12-16T23:20:44.509Z,67.40
2018-12-16T23:22:47.260Z,74.23
2018-12-16T23:24:50.133Z,100.50
2018-12-16T23:26:52.890Z,78.80
2018-12-16T23:28:56.105Z,73.60
2018-12-16T23:30:58.682Z,64.87
2018-12-16T23:33:01.970Z,66.77
2018-12-16T23:35:05.086Z,62.13
2018-12-16T23:37:07.732Z,58.00
2018-12-16T23:39:10.373Z,65.30
2018-12-16T23:41:12.939Z,69.40
2018-12-16T23:43:16.319Z,90.30
2018-12-16T23:45:18.930Z,80.77
2018-12-16T23:47:21.605Z,80.53
2018-12-16T23:49:25.051Z,162.30
2018-12-16T23:51:27.656Z,118.07
2018-12-16T23:53:30.313Z,123.20
2018-12-16T23:55:32.919Z,111.53
2018-12-16T23:57:35.523Z,100.37
2018-12-16T23:59:38.100Z,117.97
